Time;durP1;ratioP1;P1;durP2;ratioP2;P2;SDS_P1;SDS_P2;PMS_P1;PMS_P2;Temp;Humidity;BMP_temperature;BMP_pressure;BME280_temperature;BME280_humidity;BME280_pressure;Samples;Min_cycle;Max_cycle;Signal;HPM_P1;HPM_P2
2023/11/03 00:01:46;;;;;;;1.20;0.70;;;;;;;;;;5092671;28;20051;-72
2023/11/03 00:04:13;;;;;;;1.63;0.60;;;;;;;;;;5068443;28;20055;-73
2023/11/03 00:06:43;;;;;;;1.33;0.68;;;;;;;;;;5082819;28;20063;-72
2023/11/03 00:09:16;;;;;;;0.73;0.50;;;;;;;;;;5103270;28;20450;-72
2023/11/03 00:11:43;;;;;;;1.83;0.75;;;;;;;;;;5099960;28;20629;-73
2023/11/03 00:14:10;;;;;;;3.35;0.70;;;;;;;;;;5090879;28;20792;-72
2023/11/03 00:16:36;;;;;;;3.50;0.88;;;;;;;;;;5084887;28;20415;-72
2023/11/03 00:19:04;;;;;;;2.08;0.70;;;;;;;;;;5103287;28;20515;-73
2023/11/03 00:21:34;;;;;;;2.53;0.65;;;;;;;;;;5078915;28;20072;-74
2023/11/03 00:24:00;;;;;;;1.40;0.60;;;;;;;;;;5087610;28;20048;-73
2023/11/03 00:26:27;;;;;;;2.50;0.50;;;;;;;;;;5107006;27;20036;-73
2023/11/03 00:28:54;;;;;;;2.20;0.70;;;;;;;;;;5100042;28;20488;-73
2023/11/03 00:31:20;;;;;;;4.25;0.80;;;;;;;;;;5100867;28;20039;-73
2023/11/03 00:33:47;;;;;;;1.30;0.70;;;;;;;;;;5100112;28;20052;-73
2023/11/03 00:36:16;;;;;;;4.38;0.75;;;;;;;;;;5091401;28;20044;-73
2023/11/03 00:38:43;;;;;;;3.75;1.13;;;;;;;;;;5100884;28;20043;-73
2023/11/03 00:41:14;;;;;;;2.50;0.80;;;;;;;;;;5094421;28;20054;-73
2023/11/03 00:43:43;;;;;;;2.47;0.80;;;;;;;;;;5091984;28;20048;-73
2023/11/03 00:46:09;;;;;;;2.63;0.68;;;;;;;;;;5094816;28;20562;-73
2023/11/03 00:48:36;;;;;;;2.53;0.80;;;;;;;;;;5081583;28;20052;-73
2023/11/03 00:51:03;;;;;;;2.05;0.80;;;;;;;;;;5078592;28;20071;-72
2023/11/03 00:53:31;;;;;;;3.03;0.70;;;;;;;;;;5073294;28;20505;-73
2023/11/03 00:55:57;;;;;;;1.17;0.70;;;;;;;;;;5097558;28;21056;-73
2023/11/03 00:58:24;;;;;;;3.05;0.88;;;;;;;;;;5090773;28;20475;-73
2023/11/03 01:00:50;;;;;;;1.50;0.60;;;;;;;;;;5083375;28;20047;-73
2023/11/03 01:03:19;;;;;;;2.08;0.90;;;;;;;;;;5072831;28;20064;-73
2023/11/03 01:05:45;;;;;;;3.08;0.70;;;;;;;;;;5100909;28;20082;-72
2023/11/03 01:08:12;;;;;;;2.92;0.82;;;;;;;;;;5083138;28;20492;-72
2023/11/03 01:10:38;;;;;;;1.75;0.60;;;;;;;;;;5081331;28;20069;-73
2023/11/03 01:13:09;;;;;;;2.05;0.90;;;;;;;;;;5091673;28;20269;-72
2023/11/03 01:15:41;;;;;;;1.58;0.80;;;;;;;;;;5097573;28;20052;-73
2023/11/03 01:18:07;;;;;;;2.17;0.85;;;;;;;;;;5097008;28;20048;-72
2023/11/03 01:20:35;;;;;;;3.42;0.80;;;;;;;;;;5086387;28;20055;-73
2023/11/03 01:23:02;;;;;;;3.90;1.00;;;;;;;;;;5090893;28;20226;-72
2023/11/03 01:25:28;;;;;;;1.20;0.63;;;;;;;;;;5111054;28;20051;-72
2023/11/03 01:27:55;;;;;;;1.02;0.60;;;;;;;;;;5093149;28;20459;-72
2023/11/03 01:30:22;;;;;;;1.88;0.68;;;;;;;;;;5075651;28;20060;-72
2023/11/03 01:32:52;;;;;;;5.20;0.95;;;;;;;;;;5100892;28;20108;-72
2023/11/03 01:35:20;;;;;;;0.50;0.50;;;;;;;;;;5073173;28;20427;-72
2023/11/03 01:37:46;;;;;;;3.58;0.73;;;;;;;;;;5091195;28;20942;-72
2023/11/03 01:40:14;;;;;;;1.10;0.60;;;;;;;;;;5080258;28;20052;-72
2023/11/03 01:42:42;;;;;;;3.35;0.60;;;;;;;;;;5090652;28;20044;-72
2023/11/03 01:45:08;;;;;;;1.38;0.47;;;;;;;;;;5085693;28;20319;-73
2023/11/03 01:47:35;;;;;;;2.38;0.70;;;;;;;;;;5099625;28;20804;-72
2023/11/03 01:50:01;;;;;;;2.08;0.60;;;;;;;;;;5092442;28;20052;-72
2023/11/03 01:52:29;;;;;;;2.78;0.80;;;;;;;;;;5077765;28;20086;-73
2023/11/03 01:54:56;;;;;;;3.57;0.73;;;;;;;;;;5091606;28;20079;-72
2023/11/03 01:57:23;;;;;;;2.42;0.73;;;;;;;;;;5091734;28;20050;-73
2023/11/03 01:59:50;;;;;;;1.95;0.85;;;;;;;;;;5091612;28;20070;-73
2023/11/03 02:02:17;;;;;;;3.43;0.80;;;;;;;;;;5094685;28;20044;-73
2023/11/03 02:04:43;;;;;;;2.28;0.80;;;;;;;;;;5098057;28;20051;-73
2023/11/03 02:07:10;;;;;;;2.28;0.63;;;;;;;;;;5091604;28;20109;-73
2023/11/03 02:09:36;;;;;;;4.13;0.80;;;;;;;;;;5074407;28;20197;-74
2023/11/03 02:12:03;;;;;;;3.80;0.75;;;;;;;;;;5099968;28;20055;-73
2023/11/03 02:14:29;;;;;;;0.98;0.60;;;;;;;;;;5067835;28;20055;-72
2023/11/03 02:16:56;;;;;;;1.52;0.68;;;;;;;;;;5079005;28;20135;-73
2023/11/03 02:19:22;;;;;;;2.63;1.13;;;;;;;;;;5078817;28;20055;-73
2023/11/03 02:21:49;;;;;;;1.23;0.90;;;;;;;;;;5089547;28;20411;-73
2023/11/03 02:24:16;;;;;;;1.60;0.80;;;;;;;;;;5086280;28;20742;-73
2023/11/03 02:26:42;;;;;;;3.80;0.70;;;;;;;;;;5099626;28;20567;-73
2023/11/03 02:29:09;;;;;;;3.78;0.88;;;;;;;;;;5088504;28;20140;-74
2023/11/03 02:31:35;;;;;;;2.90;1.15;;;;;;;;;;5080016;28;20100;-74
2023/11/03 02:34:03;;;;;;;1.90;0.52;;;;;;;;;;5097746;28;20051;-73
2023/11/03 02:36:30;;;;;;;0.93;0.50;;;;;;;;;;5070802;28;20407;-73
2023/11/03 02:38:56;;;;;;;4.97;1.15;;;;;;;;;;5097171;28;20048;-73
2023/11/03 02:41:22;;;;;;;3.17;0.60;;;;;;;;;;5070356;28;20047;-73
2023/11/03 02:43:49;;;;;;;3.00;0.77;;;;;;;;;;5089733;28;20083;-73
2023/11/03 02:46:15;;;;;;;2.53;0.75;;;;;;;;;;5096155;28;20580;-72
2023/11/03 02:48:42;;;;;;;3.88;0.80;;;;;;;;;;5087929;28;20079;-73
2023/11/03 02:51:08;;;;;;;3.63;0.70;;;;;;;;;;5096848;28;20455;-72
2023/11/03 02:53:35;;;;;;;2.50;0.60;;;;;;;;;;5088137;28;20086;-73
2023/11/03 02:56:01;;;;;;;2.45;0.60;;;;;;;;;;5093173;28;20127;-73
2023/11/03 02:58:33;;;;;;;2.83;0.70;;;;;;;;;;5098658;28;20047;-73
2023/11/03 03:00:59;;;;;;;2.42;0.70;;;;;;;;;;5089214;28;20162;-73
2023/11/03 03:03:26;;;;;;;2.15;0.70;;;;;;;;;;5096979;28;20082;-74
2023/11/03 03:05:52;;;;;;;5.70;0.80;;;;;;;;;;5083269;28;20051;-73
2023/11/03 03:08:19;;;;;;;5.05;0.90;;;;;;;;;;5093641;28;20052;-73
2023/11/03 03:10:45;;;;;;;2.08;0.70;;;;;;;;;;5069968;28;20052;-74
2023/11/03 03:13:11;;;;;;;3.85;0.73;;;;;;;;;;5098202;28;20055;-73
2023/11/03 03:15:38;;;;;;;2.42;0.70;;;;;;;;;;5091702;28;20044;-74
2023/11/03 03:18:04;;;;;;;2.78;0.80;;;;;;;;;;5081445;28;20055;-74
2023/11/03 03:20:31;;;;;;;5.90;0.70;;;;;;;;;;5096592;28;20066;-74
2023/11/03 03:22:57;;;;;;;2.30;0.88;;;;;;;;;;5090166;28;20678;-73
2023/11/03 03:25:23;;;;;;;3.53;0.85;;;;;;;;;;5095260;28;20044;-74
2023/11/03 03:27:53;;;;;;;3.67;0.88;;;;;;;;;;5093322;28;20048;-74
2023/11/03 03:30:19;;;;;;;3.65;0.90;;;;;;;;;;5095097;28;20061;-73
2023/11/03 03:32:46;;;;;;;4.15;0.85;;;;;;;;;;5089870;28;20143;-74
2023/11/03 03:35:12;;;;;;;2.83;1.02;;;;;;;;;;5085742;28;20047;-74
2023/11/03 03:37:39;;;;;;;4.45;0.90;;;;;;;;;;5085630;28;20036;-74
2023/11/03 03:40:05;;;;;;;5.50;1.23;;;;;;;;;;5091768;28;20453;-74
2023/11/03 03:42:32;;;;;;;1.48;0.60;;;;;;;;;;5096743;28;20122;-74
2023/11/03 03:44:58;;;;;;;4.25;0.93;;;;;;;;;;5086394;28;20471;-74
2023/11/03 03:47:25;;;;;;;3.08;0.75;;;;;;;;;;5101103;28;20048;-73
2023/11/03 03:49:51;;;;;;;5.85;1.02;;;;;;;;;;5092304;28;20070;-73
2023/11/03 03:52:18;;;;;;;1.60;0.73;;;;;;;;;;5104748;28;20079;-74
2023/11/03 03:54:44;;;;;;;4.75;1.00;;;;;;;;;;5091979;28;20043;-73
2023/11/03 03:57:11;;;;;;;5.68;1.38;;;;;;;;;;5098821;28;20051;-74
2023/11/03 03:59:38;;;;;;;4.15;1.15;;;;;;;;;;5097912;28;20051;-74
2023/11/03 04:02:04;;;;;;;1.83;0.80;;;;;;;;;;5079405;28;20085;-73
2023/11/03 04:04:31;;;;;;;3.63;1.08;;;;;;;;;;5085334;28;20044;-73
2023/11/03 04:06:57;;;;;;;5.10;1.02;;;;;;;;;;5084279;28;20052;-73
2023/11/03 04:09:24;;;;;;;4.80;0.90;;;;;;;;;;5102546;28;20055;-73
2023/11/03 04:11:51;;;;;;;5.40;1.13;;;;;;;;;;5100336;28;20108;-73
2023/11/03 04:14:17;;;;;;;3.92;1.10;;;;;;;;;;5097040;28;20431;-73
2023/11/03 04:16:44;;;;;;;3.33;0.98;;;;;;;;;;5071241;28;20135;-74
2023/11/03 04:19:10;;;;;;;6.47;1.17;;;;;;;;;;5094119;28;20159;-74
2023/11/03 04:21:37;;;;;;;4.15;1.00;;;;;;;;;;5095206;28;20487;-74
2023/11/03 04:24:03;;;;;;;7.05;1.48;;;;;;;;;;5085118;28;20054;-73
2023/11/03 04:26:30;;;;;;;2.65;1.00;;;;;;;;;;5101701;28;20040;-74
2023/11/03 04:28:56;;;;;;;4.93;1.10;;;;;;;;;;5102234;28;20120;-74
2023/11/03 04:31:23;;;;;;;7.13;0.90;;;;;;;;;;5103477;27;20070;-74
2023/11/03 04:33:49;;;;;;;4.50;1.48;;;;;;;;;;5103818;27;20070;-74
2023/11/03 04:36:16;;;;;;;7.53;1.70;;;;;;;;;;5074846;28;20433;-74
2023/11/03 04:38:42;;;;;;;3.67;1.00;;;;;;;;;;5099054;28;20044;-74
2023/11/03 04:41:09;;;;;;;5.05;1.83;;;;;;;;;;5091007;28;20484;-74
2023/11/03 04:43:40;;;;;;;4.70;1.25;;;;;;;;;;5081936;28;20040;-74
2023/11/03 04:46:08;;;;;;;5.55;1.20;;;;;;;;;;5095411;28;20504;-73
2023/11/03 04:48:35;;;;;;;5.15;1.65;;;;;;;;;;5084351;28;20531;-74
2023/11/03 04:51:02;;;;;;;7.65;1.45;;;;;;;;;;5090250;28;20063;-73
2023/11/03 04:53:28;;;;;;;5.20;1.33;;;;;;;;;;5097578;28;20100;-73
2023/11/03 04:55:55;;;;;;;4.78;1.20;;;;;;;;;;5072928;28;20077;-73
2023/11/03 04:58:21;;;;;;;3.40;0.85;;;;;;;;;;5103161;28;20043;-73
2023/11/03 05:00:47;;;;;;;7.68;1.52;;;;;;;;;;5084619;28;20140;-73
2023/11/03 05:03:15;;;;;;;8.32;1.10;;;;;;;;;;5093225;28;20059;-73
2023/11/03 05:05:42;;;;;;;6.10;1.52;;;;;;;;;;5101961;28;20108;-73
2023/11/03 05:08:09;;;;;;;4.18;1.17;;;;;;;;;;5075167;28;20131;-74
2023/11/03 05:10:36;;;;;;;6.90;1.45;;;;;;;;;;5094459;28;20142;-74
2023/11/03 05:13:03;;;;;;;6.20;1.40;;;;;;;;;;5103921;28;20051;-74
2023/11/03 05:15:30;;;;;;;7.55;1.52;;;;;;;;;;5102432;28;20167;-73
2023/11/03 05:17:58;;;;;;;7.65;1.95;;;;;;;;;;5102424;28;20101;-73
2023/11/03 05:20:25;;;;;;;6.82;1.50;;;;;;;;;;5089691;28;20043;-73
2023/11/03 05:22:52;;;;;;;9.27;1.40;;;;;;;;;;5100690;28;20409;-72
2023/11/03 05:25:18;;;;;;;10.68;1.65;;;;;;;;;;5099313;28;20108;-72
2023/11/03 05:27:46;;;;;;;9.05;1.77;;;;;;;;;;5084914;28;20483;-72
2023/11/03 05:30:12;;;;;;;5.25;1.20;;;;;;;;;;5098288;28;20058;-72
2023/11/03 05:32:39;;;;;;;9.48;1.88;;;;;;;;;;5102472;28;20113;-74
2023/11/03 05:35:06;;;;;;;8.13;1.67;;;;;;;;;;5091093;28;20480;-73
2023/11/03 05:37:32;;;;;;;4.10;1.70;;;;;;;;;;5102126;28;20536;-71
2023/11/03 05:39:58;;;;;;;6.75;1.40;;;;;;;;;;5097191;28;20724;-71
2023/11/03 05:42:25;;;;;;;4.72;1.55;;;;;;;;;;5087379;28;20101;-71
2023/11/03 05:44:52;;;;;;;9.90;1.60;;;;;;;;;;5100681;28;20159;-71
2023/11/03 05:47:18;;;;;;;6.50;1.58;;;;;;;;;;5099660;28;20094;-71
2023/11/03 05:49:45;;;;;;;10.77;1.50;;;;;;;;;;5085215;28;20040;-71
2023/11/03 05:52:12;;;;;;;9.73;1.70;;;;;;;;;;5095076;28;20233;-72
2023/11/03 05:54:38;;;;;;;6.38;1.25;;;;;;;;;;5095718;28;20623;-72
2023/11/03 05:57:05;;;;;;;8.23;1.75;;;;;;;;;;5084075;28;20039;-73
2023/11/03 05:59:31;;;;;;;8.50;1.60;;;;;;;;;;5086713;28;20469;-73
2023/11/03 06:01:57;;;;;;;8.55;1.40;;;;;;;;;;5084931;28;20043;-73
2023/11/03 06:04:24;;;;;;;9.55;1.80;;;;;;;;;;5095445;28;20569;-73
2023/11/03 06:06:50;;;;;;;6.55;1.67;;;;;;;;;;5086500;28;20488;-73
2023/11/03 06:09:17;;;;;;;6.07;1.35;;;;;;;;;;5098393;28;20054;-73
2023/11/03 06:11:43;;;;;;;8.68;1.83;;;;;;;;;;5094813;28;20204;-73
2023/11/03 06:14:10;;;;;;;9.10;1.90;;;;;;;;;;5092335;28;20048;-73
2023/11/03 06:16:37;;;;;;;8.18;1.65;;;;;;;;;;5089090;28;20118;-73
2023/11/03 06:19:04;;;;;;;10.82;1.98;;;;;;;;;;5074942;28;20476;-72
2023/11/03 06:21:31;;;;;;;5.68;1.50;;;;;;;;;;5094003;28;20044;-73
2023/11/03 06:23:57;;;;;;;6.95;1.48;;;;;;;;;;5094704;28;20101;-73
2023/11/03 06:26:23;;;;;;;5.68;1.45;;;;;;;;;;5082703;28;20100;-73
2023/11/03 06:28:52;;;;;;;6.85;1.80;;;;;;;;;;5095683;28;20069;-73
2023/11/03 06:31:18;;;;;;;;;;;;;;;;;;5100108;28;20066;-72
2023/11/03 06:33:45;;;;;;;12.18;2.22;;;;;;;;;;5077541;28;20371;-73
2023/11/03 06:36:12;;;;;;;8.43;1.70;;;;;;;;;;5091689;28;20043;-73
2023/11/03 06:38:38;;;;;;;4.38;1.30;;;;;;;;;;5075218;28;20597;-73
2023/11/03 06:41:04;;;;;;;11.27;1.70;;;;;;;;;;5092206;28;20513;-72
2023/11/03 06:43:31;;;;;;;8.13;1.58;;;;;;;;;;5095268;28;20471;-73
2023/11/03 06:45:57;;;;;;;7.75;1.90;;;;;;;;;;5097018;28;20052;-73
2023/11/03 06:48:25;;;;;;;5.63;1.60;;;;;;;;;;5084518;28;20140;-73
2023/11/03 06:50:51;;;;;;;12.18;2.28;;;;;;;;;;5095220;28;20047;-73
2023/11/03 06:53:18;;;;;;;7.65;1.55;;;;;;;;;;5090811;28;20809;-73
2023/11/03 06:55:44;;;;;;;9.35;1.40;;;;;;;;;;5088602;28;20689;-73
2023/11/03 06:58:11;;;;;;;10.48;1.70;;;;;;;;;;5091880;28;20434;-73
2023/11/03 07:00:41;;;;;;;11.68;1.73;;;;;;;;;;5096858;28;20044;-73
2023/11/03 07:03:08;;;;;;;8.43;1.40;;;;;;;;;;5087545;28;20344;-73
2023/11/03 07:05:38;;;;;;;8.20;1.50;;;;;;;;;;5106549;28;20096;-73
2023/11/03 07:08:04;;;;;;;9.90;1.63;;;;;;;;;;5115510;27;20054;-73
2023/11/03 07:10:32;;;;;;;5.55;1.55;;;;;;;;;;5073300;28;20126;-72
2023/11/03 07:13:01;;;;;;;10.02;1.30;;;;;;;;;;5086500;28;20051;-73
2023/11/03 07:15:28;;;;;;;6.47;1.40;;;;;;;;;;5097569;28;20508;-73
2023/11/03 07:17:54;;;;;;;13.02;2.72;;;;;;;;;;5093022;28;20040;-72
2023/11/03 07:20:22;;;;;;;9.40;1.50;;;;;;;;;;5083990;28;20044;-72
2023/11/03 07:22:49;;;;;;;9.10;1.85;;;;;;;;;;5086694;28;20528;-72
2023/11/03 07:25:19;;;;;;;4.97;1.05;;;;;;;;;;5089186;28;20064;-72
2023/11/03 07:27:47;;;;;;;5.97;1.25;;;;;;;;;;5087791;28;20661;-72
2023/11/03 07:30:14;;;;;;;6.05;1.73;;;;;;;;;;5092811;28;20138;-73
2023/11/03 07:32:44;;;;;;;8.95;1.55;;;;;;;;;;5092185;27;20048;-73
2023/11/03 07:35:11;;;;;;;9.82;2.80;;;;;;;;;;5083014;28;20101;-73
2023/11/03 07:37:38;;;;;;;7.32;1.48;;;;;;;;;;5076860;28;20083;-73
2023/11/03 07:40:05;;;;;;;11.98;2.30;;;;;;;;;;5087447;28;20040;-73
2023/11/03 07:42:31;;;;;;;6.05;1.35;;;;;;;;;;5098752;28;20075;-73
2023/11/03 07:44:58;;;;;;;8.50;1.45;;;;;;;;;;5102610;28;20051;-73
2023/11/03 07:47:25;;;;;;;6.70;1.13;;;;;;;;;;5087462;28;20047;-73
2023/11/03 07:49:53;;;;;;;7.65;1.95;;;;;;;;;;5079365;28;20086;-73
2023/11/03 07:52:19;;;;;;;9.77;1.60;;;;;;;;;;5095712;28;20052;-73
2023/11/03 07:54:45;;;;;;;7.30;1.60;;;;;;;;;;5098905;28;20044;-73
2023/11/03 07:57:12;;;;;;;7.78;1.60;;;;;;;;;;5101231;28;20043;-73
2023/11/03 07:59:42;;;;;;;6.82;1.35;;;;;;;;;;5099298;28;20123;-73
2023/11/03 08:02:09;;;;;;;4.20;1.40;;;;;;;;;;5067350;28;20410;-73
2023/11/03 08:04:36;;;;;;;8.47;1.23;;;;;;;;;;5080190;28;20121;-73
2023/11/03 08:07:02;;;;;;;6.05;1.45;;;;;;;;;;5099129;28;20044;-73
2023/11/03 08:09:30;;;;;;;7.75;1.52;;;;;;;;;;5100549;28;20100;-73
2023/11/03 08:11:57;;;;;;;6.13;0.82;;;;;;;;;;5091419;28;20075;-73
2023/11/03 08:14:24;;;;;;;10.63;1.70;;;;;;;;;;5095791;28;20492;-73
2023/11/03 08:16:50;;;;;;;8.88;1.50;;;;;;;;;;5085668;28;20391;-73
2023/11/03 08:19:17;;;;;;;11.82;1.55;;;;;;;;;;5096576;28;20464;-73
2023/11/03 08:21:43;;;;;;;8.10;1.70;;;;;;;;;;5110323;27;20039;-73
2023/11/03 08:24:11;;;;;;;8.70;1.83;;;;;;;;;;5078560;28;20459;-73
2023/11/03 08:26:40;;;;;;;9.93;1.25;;;;;;;;;;5071493;28;20040;-73
2023/11/03 08:29:08;;;;;;;8.63;1.70;;;;;;;;;;5104228;28;20582;-74
2023/11/03 08:31:35;;;;;;;9.00;1.67;;;;;;;;;;5103114;28;20048;-73
2023/11/03 08:34:07;;;;;;;10.77;1.70;;;;;;;;;;5102617;28;20122;-73
2023/11/03 08:36:33;;;;;;;8.80;1.38;;;;;;;;;;5089369;28;20048;-73
2023/11/03 08:39:00;;;;;;;11.98;1.80;;;;;;;;;;5102598;28;20712;-74
2023/11/03 08:41:26;;;;;;;12.30;2.03;;;;;;;;;;5104772;28;20039;-73
2023/11/03 08:43:53;;;;;;;9.98;1.85;;;;;;;;;;5088103;28;20116;-74
2023/11/03 08:46:20;;;;;;;9.65;1.63;;;;;;;;;;5101817;28;20129;-73
2023/11/03 08:48:46;;;;;;;10.35;2.10;;;;;;;;;;5077445;28;20411;-73
2023/11/03 08:51:15;;;;;;;13.00;2.78;;;;;;;;;;5099286;28;20048;-74
2023/11/03 08:53:43;;;;;;;;;;;;;;;;;;5083262;28;20050;-73
2023/11/03 08:56:12;;;;;;;7.00;1.52;;;;;;;;;;5092496;28;19924;-73
2023/11/03 08:58:39;;;;;;;6.78;1.50;;;;;;;;;;5100816;28;20040;-73
2023/11/03 09:01:07;;;;;;;16.27;2.67;;;;;;;;;;5091969;28;20504;-73
2023/11/03 09:03:34;;;;;;;10.20;2.13;;;;;;;;;;5096010;28;20047;-73
2023/11/03 09:06:00;;;;;;;9.80;2.00;;;;;;;;;;5094126;28;20058;-73
2023/11/03 09:08:27;;;;;;;5.82;1.40;;;;;;;;;;5091024;28;20036;-73
2023/11/03 09:10:53;;;;;;;15.10;1.63;;;;;;;;;;5117770;28;20387;-72
2023/11/03 09:13:20;;;;;;;11.75;2.45;;;;;;;;;;5121923;28;20051;-73
2023/11/03 09:15:47;;;;;;;8.73;1.83;;;;;;;;;;5120999;28;20111;-73
2023/11/03 09:18:18;;;;;;;9.05;1.70;;;;;;;;;;5095821;28;20097;-73
2023/11/03 09:20:45;;;;;;;13.93;1.75;;;;;;;;;;5101494;28;20056;-73
2023/11/03 09:23:11;;;;;;;7.20;1.70;;;;;;;;;;5089127;28;20070;-74
2023/11/03 09:25:38;;;;;;;9.07;1.75;;;;;;;;;;5096113;28;20051;-72
2023/11/03 09:28:04;;;;;;;12.68;2.13;;;;;;;;;;5097947;28;20056;-72
2023/11/03 09:30:31;;;;;;;10.38;1.88;;;;;;;;;;5095303;28;20047;-72
2023/11/03 09:32:58;;;;;;;12.18;2.10;;;;;;;;;;5102819;28;20052;-72
2023/11/03 09:35:25;;;;;;;13.90;2.72;;;;;;;;;;5090431;28;20047;-73
2023/11/03 09:37:53;;;;;;;11.80;1.95;;;;;;;;;;5089067;28;20648;-73
2023/11/03 09:40:20;;;;;;;9.93;2.30;;;;;;;;;;5090665;28;20048;-73
2023/11/03 09:42:47;;;;;;;7.45;1.55;;;;;;;;;;5091282;28;20390;-73
2023/11/03 09:45:19;;;;;;;8.50;1.73;;;;;;;;;;5094842;28;20933;-74
2023/11/03 09:47:46;;;;;;;12.68;1.75;;;;;;;;;;5088698;28;20047;-72
2023/11/03 09:50:13;;;;;;;7.90;1.40;;;;;;;;;;5097512;28;20057;-72
2023/11/03 09:52:49;;;;;;;15.55;2.50;;;;;;;;;;5073408;28;20048;-72
2023/11/03 09:55:21;;;;;;;10.27;2.15;;;;;;;;;;5080635;28;20289;-72
2023/11/03 09:57:49;;;;;;;10.57;1.55;;;;;;;;;;5096802;28;20050;-72
2023/11/03 10:00:19;;;;;;;;;;;;;;;;;;5089127;28;20468;-71
2023/11/03 10:02:48;;;;;;;7.35;2.30;;;;;;;;;;5094612;28;19982;-72
2023/11/03 10:05:16;;;;;;;13.35;1.98;;;;;;;;;;5098350;28;20040;-72
2023/11/03 10:07:54;;;;;;;13.82;1.70;;;;;;;;;;5102219;28;20111;-73
2023/11/03 10:10:21;;;;;;;11.93;1.98;;;;;;;;;;5094894;27;20043;-72
2023/11/03 10:12:48;;;;;;;11.18;1.65;;;;;;;;;;5079801;28;20060;-72
2023/11/03 10:15:15;;;;;;;7.60;1.60;;;;;;;;;;5083295;28;20075;-72
2023/11/03 10:17:47;;;;;;;7.10;1.27;;;;;;;;;;5095432;28;20083;-72
2023/11/03 10:20:15;;;;;;;7.60;1.50;;;;;;;;;;5078574;28;20043;-72
2023/11/03 10:22:42;;;;;;;8.38;1.42;;;;;;;;;;5084647;28;20050;-72
2023/11/03 10:25:09;;;;;;;14.35;1.42;;;;;;;;;;5099922;28;20052;-73
2023/11/03 10:27:36;;;;;;;9.15;1.83;;;;;;;;;;5089720;28;20059;-72
2023/11/03 10:30:05;;;;;;;10.23;2.03;;;;;;;;;;5088334;28;20079;-72
2023/11/03 10:32:32;;;;;;;11.13;2.05;;;;;;;;;;5106888;28;20075;-71
2023/11/03 10:35:02;;;;;;;6.50;1.63;;;;;;;;;;5098453;28;20573;-72
2023/11/03 10:37:29;;;;;;;11.48;2.22;;;;;;;;;;5082646;28;20047;-72
2023/11/03 10:39:55;;;;;;;10.65;1.73;;;;;;;;;;5096677;28;20055;-72
2023/11/03 10:42:23;;;;;;;14.50;2.28;;;;;;;;;;5096315;28;20040;-73
2023/11/03 10:44:53;;;;;;;7.05;1.67;;;;;;;;;;5103906;28;20413;-72
2023/11/03 10:47:24;;;;;;;12.45;2.33;;;;;;;;;;5092680;28;20044;-73
2023/11/03 10:49:53;;;;;;;12.40;2.22;;;;;;;;;;5106071;28;20475;-72
2023/11/03 10:52:28;;;;;;;12.95;1.80;;;;;;;;;;5093296;28;20054;-72
2023/11/03 10:55:06;;;;;;;13.55;1.80;;;;;;;;;;5088549;28;20044;-72
2023/11/03 10:57:36;;;;;;;10.45;1.92;;;;;;;;;;5088753;28;20047;-72
2023/11/03 11:00:26;;;;;;;7.85;1.40;;;;;;;;;;5107310;28;20043;-72
2023/11/03 11:03:12;;;;;;;7.85;1.40;;;;;;;;;;5104346;28;20068;-72
2023/11/03 11:05:53;;;;;;;8.60;1.70;;;;;;;;;;5087186;28;20131;-72
2023/11/03 11:08:20;;;;;;;11.63;2.20;;;;;;;;;;5088471;28;20503;-72
2023/11/03 11:10:46;;;;;;;5.00;1.58;;;;;;;;;;5101943;28;20059;-72
2023/11/03 11:13:19;;;;;;;10.27;2.13;;;;;;;;;;5095057;28;20052;-72
2023/11/03 11:16:02;;;;;;;9.30;2.42;;;;;;;;;;5104578;28;20129;-72
2023/11/03 11:18:32;;;;;;;12.63;2.10;;;;;;;;;;5103737;28;20307;-72
2023/11/03 11:21:04;;;;;;;9.57;1.73;;;;;;;;;;5093068;28;20071;-72
2023/11/03 11:23:35;;;;;;;10.57;2.20;;;;;;;;;;5101430;28;20056;-71
2023/11/03 11:26:02;;;;;;;12.05;2.25;;;;;;;;;;5108384;28;20052;-72
2023/11/03 11:28:33;;;;;;;15.77;2.90;;;;;;;;;;5096424;28;20054;-72
2023/11/03 11:30:59;;;;;;;14.65;2.63;;;;;;;;;;5088098;28;20696;-72
2023/11/03 11:33:28;;;;;;;11.80;1.75;;;;;;;;;;5105557;28;20497;-72
2023/11/03 11:35:54;;;;;;;;;;;;;;;;;;5088534;28;20488;-72
2023/11/03 11:38:23;;;;;;;14.93;2.00;;;;;;;;;;5083062;28;20559;-72
2023/11/03 11:40:51;;;;;;;9.25;2.80;;;;;;;;;;5095001;28;20071;-72
2023/11/03 11:43:18;;;;;;;14.77;1.88;;;;;;;;;;5098546;28;20056;-72
2023/11/03 11:45:50;;;;;;;9.23;1.80;;;;;;;;;;5081457;28;20060;-72
2023/11/03 11:48:16;;;;;;;8.60;1.65;;;;;;;;;;5084245;28;20105;-72
2023/11/03 11:50:46;;;;;;;8.27;1.60;;;;;;;;;;5097041;28;20048;-72
2023/11/03 11:53:14;;;;;;;6.20;1.50;;;;;;;;;;5109004;27;20520;-72
2023/11/03 11:55:41;;;;;;;13.50;2.00;;;;;;;;;;5087056;28;20059;-71
2023/11/03 11:58:09;;;;;;;13.00;2.10;;;;;;;;;;5103221;27;20039;-72
2023/11/03 12:00:40;;;;;;;6.70;1.27;;;;;;;;;;5099297;28;20044;-71
2023/11/03 12:03:07;;;;;;;14.70;2.15;;;;;;;;;;5096451;27;20280;-71
2023/11/03 12:05:34;;;;;;;6.97;1.58;;;;;;;;;;5106423;28;20036;-72
2023/11/03 12:08:04;;;;;;;11.57;1.70;;;;;;;;;;5094382;28;20101;-71
2023/11/03 12:10:33;;;;;;;5.97;1.40;;;;;;;;;;5095544;28;20052;-72
2023/11/03 12:13:00;;;;;;;8.23;1.95;;;;;;;;;;5075750;28;20131;-72
2023/11/03 12:15:26;;;;;;;13.25;2.15;;;;;;;;;;5092607;28;20075;-72
2023/11/03 12:17:53;;;;;;;15.30;2.20;;;;;;;;;;5078032;28;20159;-72
2023/11/03 12:20:19;;;;;;;6.13;1.90;;;;;;;;;;5090342;28;20134;-72
2023/11/03 12:22:46;;;;;;;9.20;1.67;;;;;;;;;;5098694;28;20482;-72
2023/11/03 12:25:12;;;;;;;13.15;1.70;;;;;;;;;;5101296;28;20043;-72
2023/11/03 12:27:39;;;;;;;7.15;1.63;;;;;;;;;;5068573;28;20050;-71
2023/11/03 12:30:07;;;;;;;13.43;1.80;;;;;;;;;;5089783;28;20051;-72
2023/11/03 12:32:34;;;;;;;13.77;1.58;;;;;;;;;;5096424;28;20044;-72
2023/11/03 12:35:01;;;;;;;10.48;2.25;;;;;;;;;;5090482;28;20521;-72
2023/11/03 12:37:28;;;;;;;11.23;1.98;;;;;;;;;;5103996;28;20110;-72
2023/11/03 12:39:55;;;;;;;7.88;1.55;;;;;;;;;;5099230;28;20040;-72
2023/11/03 12:42:26;;;;;;;9.80;1.70;;;;;;;;;;5094242;28;20648;-72
2023/11/03 12:44:52;;;;;;;10.55;1.92;;;;;;;;;;5091687;28;20105;-71
2023/11/03 12:47:42;;;;;;;8.73;1.38;;;;;;;;;;5085787;28;20051;-72
2023/11/03 12:50:09;;;;;;;13.80;1.65;;;;;;;;;;5089072;28;20714;-73
2023/11/03 12:52:36;;;;;;;13.85;1.88;;;;;;;;;;5074344;27;20074;-72
2023/11/03 12:55:03;;;;;;;9.93;1.80;;;;;;;;;;5085186;28;20056;-72
2023/11/03 12:57:33;;;;;;;9.00;1.60;;;;;;;;;;5075105;28;20074;-72
2023/11/03 13:00:00;;;;;;;12.15;2.00;;;;;;;;;;5078547;28;20058;-73
2023/11/03 13:02:26;;;;;;;8.63;1.75;;;;;;;;;;5078805;28;20100;-73
2023/11/03 13:04:52;;;;;;;7.07;1.65;;;;;;;;;;5094361;28;20049;-72
2023/11/03 13:07:21;;;;;;;6.18;1.42;;;;;;;;;;5097859;28;20054;-73
2023/11/03 13:09:47;;;;;;;5.40;1.30;;;;;;;;;;5089059;28;20056;-72
2023/11/03 13:12:14;;;;;;;9.63;1.65;;;;;;;;;;5084699;28;20126;-73
2023/11/03 13:14:43;;;;;;;12.85;2.63;;;;;;;;;;5082576;28;20059;-72
2023/11/03 13:17:10;;;;;;;10.27;1.70;;;;;;;;;;5079551;28;20052;-73
2023/11/03 13:19:37;;;;;;;8.82;1.85;;;;;;;;;;5102756;28;20042;-72
2023/11/03 13:22:05;;;;;;;8.60;1.77;;;;;;;;;;5099852;28;20043;-72
2023/11/03 13:24:31;;;;;;;11.77;1.83;;;;;;;;;;5084653;28;20109;-72
2023/11/03 13:26:58;;;;;;;7.85;1.52;;;;;;;;;;5103183;28;20062;-72
2023/11/03 13:29:24;;;;;;;10.70;1.77;;;;;;;;;;5103085;28;20051;-72
2023/11/03 13:31:50;;;;;;;11.80;1.75;;;;;;;;;;5068788;28;20084;-72
2023/11/03 13:34:17;;;;;;;12.57;2.03;;;;;;;;;;5086126;28;20061;-72
2023/11/03 13:36:44;;;;;;;8.48;1.60;;;;;;;;;;5092023;28;20043;-72
2023/11/03 13:39:11;;;;;;;5.85;1.60;;;;;;;;;;5093812;28;20043;-72
2023/11/03 13:41:38;;;;;;;7.15;1.50;;;;;;;;;;5106614;27;20058;-72
2023/11/03 13:44:06;;;;;;;7.63;1.42;;;;;;;;;;5103380;28;20054;-72
2023/11/03 13:46:32;;;;;;;12.40;1.75;;;;;;;;;;5100011;28;20048;-72
2023/11/03 13:48:59;;;;;;;10.98;2.17;;;;;;;;;;5102587;28;20051;-72
2023/11/03 13:51:25;;;;;;;6.43;1.35;;;;;;;;;;5080489;28;20074;-73
2023/11/03 13:53:52;;;;;;;8.93;1.60;;;;;;;;;;5097642;28;20104;-72
2023/11/03 13:56:21;;;;;;;11.07;2.08;;;;;;;;;;5086279;28;20048;-72
2023/11/03 13:58:48;;;;;;;5.40;1.13;;;;;;;;;;5097260;28;20176;-72
2023/11/03 14:01:14;;;;;;;8.27;1.75;;;;;;;;;;5092830;28;20131;-72
2023/11/03 14:03:41;;;;;;;9.07;1.52;;;;;;;;;;5076109;28;20063;-72
2023/11/03 14:06:08;;;;;;;10.70;2.05;;;;;;;;;;5094143;28;20052;-72
2023/11/03 14:08:35;;;;;;;7.82;1.85;;;;;;;;;;5086877;28;20049;-72
2023/11/03 14:11:05;;;;;;;6.00;1.40;;;;;;;;;;5086837;28;20500;-72
2023/11/03 14:13:34;;;;;;;5.05;1.48;;;;;;;;;;5107270;28;20090;-72
2023/11/03 14:16:02;;;;;;;10.77;1.67;;;;;;;;;;5086776;28;20047;-72
2023/11/03 14:18:29;;;;;;;9.27;1.50;;;;;;;;;;5105177;28;20310;-72
2023/11/03 14:21:00;;;;;;;10.43;1.33;;;;;;;;;;5097702;28;20135;-72
2023/11/03 14:23:29;;;;;;;7.57;1.60;;;;;;;;;;5099491;28;20122;-73
2023/11/03 14:25:56;;;;;;;6.30;1.13;;;;;;;;;;5075577;28;20050;-72
2023/11/03 14:28:23;;;;;;;6.53;1.50;;;;;;;;;;5103609;28;20791;-72
2023/11/03 14:30:49;;;;;;;7.93;1.50;;;;;;;;;;5087185;28;20047;-72
2023/11/03 14:33:18;;;;;;;8.27;1.58;;;;;;;;;;5097880;28;20040;-72
2023/11/03 14:35:45;;;;;;;9.73;1.50;;;;;;;;;;5074053;28;20040;-72
2023/11/03 14:38:11;;;;;;;6.65;1.30;;;;;;;;;;5104510;28;20046;-72
2023/11/03 14:40:38;;;;;;;9.98;1.08;;;;;;;;;;5085925;28;20048;-72
2023/11/03 14:43:05;;;;;;;6.65;1.10;;;;;;;;;;5096262;28;20048;-72